createdAt,value
2022-12-08T00:01:12.158Z,97663.59
2022-12-08T00:02:44.606Z,97666.59
2022-12-08T00:04:16.420Z,97663.78
2022-12-08T00:06:08.146Z,97664.22
2022-12-08T00:07:58.330Z,97666.00
2022-12-08T00:09:39.347Z,97665.59
2022-12-08T00:11:15.230Z,97662.66
2022-12-08T00:12:46.823Z,97666.53
2022-12-08T00:14:19.141Z,97662.91
2022-12-08T00:15:51.248Z,97660.22
2022-12-08T00:17:23.087Z,97655.53
2022-12-08T00:18:54.928Z,97657.66
2022-12-08T00:20:26.609Z,97651.50
2022-12-08T00:21:59.930Z,97651.25
2022-12-08T00:23:31.811Z,97651.25
2022-12-08T00:25:03.981Z,97653.09
2022-12-08T00:26:37.090Z,97652.72
2022-12-08T00:28:08.947Z,97654.38
2022-12-08T00:29:40.702Z,97648.66
2022-12-08T00:31:12.988Z,97648.19
2022-12-08T00:32:44.592Z,97649.19
2022-12-08T00:34:16.763Z,97644.69
2022-12-08T00:35:48.391Z,97641.63
2022-12-08T00:37:20.407Z,97640.63
2022-12-08T00:38:52.179Z,97643.31
2022-12-08T00:40:23.821Z,97645.06
2022-12-08T00:42:13.901Z,97644.56
2022-12-08T00:43:45.588Z,97642.81
2022-12-08T00:45:17.230Z,97641.66
2022-12-08T00:46:49.654Z,97636.84
2022-12-08T00:48:21.336Z,97636.38
2022-12-08T00:49:52.933Z,97630.00
2022-12-08T00:51:24.834Z,97636.53
2022-12-08T00:52:56.378Z,97634.03
2022-12-08T00:54:28.068Z,97639.78
2022-12-08T00:55:59.666Z,97637.53
2022-12-08T00:57:32.036Z,97640.47
2022-12-08T00:59:05.056Z,97624.38
2022-12-08T01:00:36.673Z,97629.53
2022-12-08T01:02:08.233Z,97625.53
2022-12-08T01:03:42.100Z,97629.75
2022-12-08T01:05:13.743Z,97636.88
2022-12-08T01:06:45.793Z,97635.13
2022-12-08T01:08:18.408Z,97638.94
2022-12-08T01:09:49.999Z,97631.44
2022-12-08T01:11:21.642Z,97624.03
2022-12-08T01:12:53.280Z,97632.19
2022-12-08T01:14:25.026Z,97630.84
2022-12-08T01:15:56.691Z,97632.69
2022-12-08T01:17:28.279Z,97634.53
2022-12-08T01:19:00.433Z,97632.78
2022-12-08T01:20:32.053Z,97634.66
2022-12-08T01:22:03.701Z,97634.66
2022-12-08T01:23:35.363Z,97631.25
2022-12-08T01:25:07.291Z,97636.59
2022-12-08T01:26:39.107Z,97633.31
2022-12-08T01:28:10.799Z,97626.81
2022-12-08T01:29:42.399Z,97634.75
2022-12-08T01:31:17.223Z,97625.50
2022-12-08T01:32:48.918Z,97632.47
2022-12-08T01:34:20.528Z,97637.03
2022-12-08T01:35:52.691Z,97628.69
2022-12-08T01:37:24.272Z,97629.09
2022-12-08T01:38:58.792Z,97640.53
2022-12-08T01:40:30.387Z,97640.13
2022-12-08T01:42:01.922Z,97647.75
2022-12-08T01:44:08.553Z,97639.13
2022-12-08T01:45:40.267Z,97648.56
2022-12-08T01:47:12.047Z,97645.59
2022-12-08T01:48:43.675Z,97642.00
2022-12-08T01:50:19.106Z,97639.13
2022-12-08T01:51:50.735Z,97648.28
2022-12-08T01:53:32.845Z,97640.16
2022-12-08T01:55:10.541Z,97641.91
2022-12-08T01:56:51.681Z,97636.44
2022-12-08T01:58:28.950Z,97632.31
2022-12-08T02:00:09.027Z,97629.22
2022-12-08T02:01:41.071Z,97637.28
2022-12-08T02:03:22.471Z,97636.75
2022-12-08T02:04:54.077Z,97635.09
2022-12-08T02:06:28.636Z,97633.97
2022-12-08T02:08:04.434Z,97630.56
2022-12-08T02:09:38.451Z,97629.03
2022-12-08T02:11:12.326Z,97635.50
2022-12-08T02:12:44.151Z,97619.56
2022-12-08T02:14:15.823Z,97626.38
2022-12-08T02:16:24.274Z,97629.66
2022-12-08T02:18:08.341Z,97624.72
2022-12-08T02:20:17.739Z,97624.22
2022-12-08T02:21:58.742Z,97625.03
2022-12-08T02:23:37.188Z,97617.22
2022-12-08T02:25:37.252Z,97618.16
2022-12-08T02:27:33.978Z,97612.69
2022-12-08T02:29:34.916Z,97611.38
2022-12-08T02:31:34.008Z,97620.09
2022-12-08T02:33:30.432Z,97614.13
2022-12-08T02:35:11.077Z,97613.28
2022-12-08T02:36:53.897Z,97609.91
2022-12-08T02:38:53.427Z,97610.72
2022-12-08T02:40:35.712Z,97605.81
2022-12-08T02:42:22.154Z,97603.63
2022-12-08T02:44:03.009Z,97595.91
2022-12-08T02:46:01.326Z,97594.69
2022-12-08T02:47:34.547Z,97594.28
2022-12-08T02:49:07.189Z,97585.84
2022-12-08T02:50:38.757Z,97591.28
2022-12-08T02:52:10.306Z,97595.91
2022-12-08T02:53:42.131Z,97590.47
2022-12-08T02:55:27.569Z,97591.31
2022-12-08T02:57:05.046Z,97587.81
2022-12-08T02:59:06.031Z,97586.16
2022-12-08T03:01:06.383Z,97588.50
2022-12-08T03:02:52.800Z,97580.50
2022-12-08T03:04:59.104Z,97575.75
2022-12-08T03:06:48.812Z,97577.50
2022-12-08T03:08:43.254Z,97575.56
2022-12-08T03:10:21.782Z,97567.53
2022-12-08T03:12:14.712Z,97570.53
2022-12-08T03:13:53.808Z,97567.66
2022-12-08T03:15:25.708Z,97566.00
2022-12-08T03:16:59.551Z,97564.47
2022-12-08T03:18:34.251Z,97566.91
2022-12-08T03:20:11.582Z,97560.34
2022-12-08T03:21:46.933Z,97557.78
2022-12-08T03:23:20.056Z,97558.78
2022-12-08T03:24:51.849Z,97563.00
2022-12-08T03:26:48.591Z,97568.16
2022-12-08T03:28:20.558Z,97562.00
2022-12-08T03:29:54.540Z,97560.75
2022-12-08T03:31:31.611Z,97559.53
2022-12-08T03:33:18.726Z,97557.38
2022-12-08T03:34:52.332Z,97554.47
2022-12-08T03:36:25.351Z,97555.22
2022-12-08T03:38:10.663Z,97549.75
2022-12-08T03:39:42.591Z,97541.81
2022-12-08T03:41:19.986Z,97542.66
2022-12-08T03:42:51.567Z,97537.22
2022-12-08T03:44:23.217Z,97530.53
2022-12-08T03:45:54.781Z,97541.53
2022-12-08T03:47:26.402Z,97535.34
2022-12-08T03:48:57.994Z,97534.44
2022-12-08T03:50:29.619Z,97533.69
2022-12-08T03:52:01.209Z,97536.56
2022-12-08T03:53:32.817Z,97537.50
2022-12-08T03:55:04.760Z,97527.72
2022-12-08T03:56:38.532Z,97523.00
2022-12-08T03:58:10.129Z,97537.00
2022-12-08T03:59:41.769Z,97524.75
2022-12-08T04:01:13.518Z,97528.38
2022-12-08T04:02:45.340Z,97535.16
2022-12-08T04:04:17.104Z,97535.66
2022-12-08T04:05:48.744Z,97525.47
2022-12-08T04:07:20.337Z,97524.13
2022-12-08T04:08:52.386Z,97521.75
2022-12-08T04:10:24.157Z,97518.78
2022-12-08T04:11:55.738Z,97519.38
2022-12-08T04:13:27.687Z,97519.78
2022-12-08T04:14:59.262Z,97514.75
2022-12-08T04:16:30.875Z,97518.56
2022-12-08T04:18:02.522Z,97519.78
2022-12-08T04:19:34.244Z,97514.22
2022-12-08T04:21:05.842Z,97516.25
2022-12-08T04:22:37.408Z,97507.84
2022-12-08T04:24:09.446Z,97511.22
2022-12-08T04:25:41.098Z,97506.84
2022-12-08T04:27:12.703Z,97506.25
2022-12-08T04:28:44.490Z,97498.00
2022-12-08T04:30:16.174Z,97513.69
2022-12-08T04:31:47.740Z,97511.31
2022-12-08T04:33:19.338Z,97512.63
2022-12-08T04:34:50.910Z,97515.00
2022-12-08T04:36:22.524Z,97506.78
2022-12-08T04:37:54.078Z,97509.66
2022-12-08T04:39:25.685Z,97505.84
2022-12-08T04:40:57.364Z,97510.63
2022-12-08T04:42:28.975Z,97509.66
2022-12-08T04:44:00.583Z,97502.59
2022-12-08T04:45:33.042Z,97510.69
2022-12-08T04:47:04.795Z,97508.72
2022-12-08T04:48:40.102Z,97510.19
2022-12-08T04:50:11.919Z,97509.25
2022-12-08T04:51:43.483Z,97505.25
2022-12-08T04:53:15.257Z,97504.50
2022-12-08T04:54:47.048Z,97502.03
2022-12-08T04:56:19.239Z,97501.22
2022-12-08T04:57:51.157Z,97503.16
2022-12-08T04:59:22.717Z,97505.63
2022-12-08T05:00:54.352Z,97502.50
2022-12-08T05:02:26.066Z,97504.47
2022-12-08T05:03:57.844Z,97503.03
2022-12-08T05:05:29.385Z,97501.56
2022-12-08T05:07:01.093Z,97505.03
2022-12-08T05:08:33.286Z,97502.38
2022-12-08T05:10:05.960Z,97499.81
2022-12-08T05:11:48.376Z,97501.13
2022-12-08T05:13:20.548Z,97505.34
2022-12-08T05:14:52.170Z,97501.78
2022-12-08T05:16:23.887Z,97502.69
2022-12-08T05:17:55.587Z,97500.13
2022-12-08T05:19:27.260Z,97502.78
2022-12-08T05:20:59.064Z,97499.38
2022-12-08T05:22:30.868Z,97494.34
2022-12-08T05:24:02.560Z,97494.25
2022-12-08T05:25:34.153Z,97491.50
2022-12-08T05:27:06.118Z,97498.47
2022-12-08T05:28:42.781Z,97498.66
2022-12-08T05:30:15.199Z,97499.22
2022-12-08T05:31:46.835Z,97492.56
2022-12-08T05:33:18.522Z,97498.69
2022-12-08T05:34:50.194Z,97496.53
2022-12-08T05:36:21.912Z,97500.31
2022-12-08T05:37:53.944Z,97499.25
2022-12-08T05:39:25.807Z,97497.59
2022-12-08T05:40:57.436Z,97496.84
2022-12-08T05:42:29.049Z,97491.00
2022-12-08T05:44:00.667Z,97486.50
2022-12-08T05:45:32.401Z,97486.13
2022-12-08T05:47:04.151Z,97490.53
2022-12-08T05:48:35.968Z,97493.56
2022-12-08T05:50:08.046Z,97493.91
2022-12-08T05:51:39.671Z,97499.03
2022-12-08T05:53:11.262Z,97500.78
2022-12-08T05:54:42.834Z,97492.47
2022-12-08T05:56:15.402Z,97493.13
2022-12-08T05:57:47.073Z,97493.88
2022-12-08T05:59:18.638Z,97492.44
2022-12-08T06:00:51.314Z,97487.97
2022-12-08T06:02:23.146Z,97485.59
2022-12-08T06:03:56.206Z,97484.88
2022-12-08T06:05:28.460Z,97488.25
2022-12-08T06:07:00.032Z,97491.66
2022-12-08T06:08:31.840Z,97479.75
2022-12-08T06:10:04.665Z,97480.56
2022-12-08T06:11:36.540Z,97476.97
2022-12-08T06:13:08.439Z,97479.91
2022-12-08T06:14:40.218Z,97482.69
2022-12-08T06:16:11.933Z,97489.72
2022-12-08T06:17:43.839Z,97483.06
2022-12-08T06:19:16.007Z,97482.94
2022-12-08T06:20:47.845Z,97481.31
2022-12-08T06:22:19.747Z,97484.59
2022-12-08T06:23:53.448Z,97477.66
2022-12-08T06:25:25.440Z,97480.84
2022-12-08T06:26:57.109Z,97485.53
2022-12-08T06:28:30.306Z,97485.72
2022-12-08T06:30:02.244Z,97489.94
2022-12-08T06:31:34.242Z,97489.00
2022-12-08T06:33:05.840Z,97489.94
2022-12-08T06:34:37.845Z,97490.19
2022-12-08T06:36:12.973Z,97491.13
2022-12-08T06:37:44.584Z,97495.53
2022-12-08T06:39:16.203Z,97492.31
2022-12-08T06:40:54.377Z,97496.63
2022-12-08T06:42:44.196Z,97497.66
2022-12-08T06:44:15.792Z,97500.00
2022-12-08T06:45:47.662Z,97497.53
2022-12-08T06:47:26.051Z,97500.75
2022-12-08T06:48:58.587Z,97488.13
2022-12-08T06:50:30.177Z,97496.09
2022-12-08T06:52:01.879Z,97496.72
2022-12-08T06:53:33.476Z,97496.06
2022-12-08T06:55:05.603Z,97491.56
2022-12-08T06:56:37.230Z,97492.59
2022-12-08T06:58:08.897Z,97495.63
2022-12-08T06:59:40.474Z,97496.00
2022-12-08T07:01:13.778Z,97496.00
2022-12-08T07:02:45.455Z,97501.56
2022-12-08T07:04:17.205Z,97493.06
2022-12-08T07:05:48.905Z,97497.19
2022-12-08T07:07:20.493Z,97500.38
2022-12-08T07:08:52.231Z,97501.28
2022-12-08T07:10:23.873Z,97493.81
2022-12-08T07:11:55.443Z,97496.25
2022-12-08T07:13:27.088Z,97502.38
2022-12-08T07:14:59.024Z,97507.59
2022-12-08T07:16:30.868Z,97509.72
2022-12-08T07:18:02.564Z,97510.78
2022-12-08T07:19:34.250Z,97512.44
2022-12-08T07:21:08.600Z,97508.78
2022-12-08T07:22:40.249Z,97517.00
2022-12-08T07:24:12.365Z,97516.94
2022-12-08T07:25:44.127Z,97517.47
2022-12-08T07:27:15.917Z,97512.19
2022-12-08T07:28:47.734Z,97509.63
2022-12-08T07:30:20.552Z,97507.72
2022-12-08T07:31:53.747Z,97509.28
2022-12-08T07:33:25.645Z,97512.97
2022-12-08T07:34:57.222Z,97517.91
2022-12-08T07:36:28.940Z,97515.78
2022-12-08T07:38:00.737Z,97515.97
2022-12-08T07:39:32.810Z,97525.19
2022-12-08T07:41:11.939Z,97520.06
2022-12-08T07:42:44.901Z,97517.94
2022-12-08T07:44:17.594Z,97521.06
2022-12-08T07:45:50.979Z,97514.69
2022-12-08T07:47:23.513Z,97521.09
2022-12-08T07:48:56.010Z,97520.19
2022-12-08T07:50:28.660Z,97516.41
2022-12-08T07:52:01.167Z,97523.00
2022-12-08T07:53:34.585Z,97513.28
2022-12-08T07:55:08.209Z,97524.16
2022-12-08T07:56:41.628Z,97514.28
2022-12-08T07:58:14.187Z,97518.06
2022-12-08T07:59:48.078Z,97512.19
2022-12-08T08:01:31.919Z,97507.38
2022-12-08T08:03:05.174Z,97518.25
2022-12-08T08:04:38.325Z,97512.63
2022-12-08T08:06:10.967Z,97515.72
2022-12-08T08:07:44.199Z,97510.72
2022-12-08T08:09:16.576Z,97517.28
2022-12-08T08:10:48.257Z,97517.09
2022-12-08T08:12:31.245Z,97521.19
2022-12-08T08:14:05.218Z,97508.69
2022-12-08T08:15:38.995Z,97518.63
2022-12-08T08:17:11.372Z,97517.06
2022-12-08T08:18:44.898Z,97515.75
2022-12-08T08:20:19.015Z,97513.44
2022-12-08T08:21:52.079Z,97508.31
2022-12-08T08:23:24.812Z,97498.88
2022-12-08T08:24:58.013Z,97505.47
2022-12-08T08:26:31.267Z,97503.63
2022-12-08T08:28:03.362Z,97504.34
2022-12-08T08:29:35.733Z,97512.03
2022-12-08T08:31:08.171Z,97504.16
2022-12-08T08:32:40.830Z,97504.78
2022-12-08T08:34:13.140Z,97511.47
2022-12-08T08:35:46.835Z,97504.28
2022-12-08T08:37:20.566Z,97504.19
2022-12-08T08:38:52.742Z,97506.66
2022-12-08T08:40:25.654Z,97499.78
2022-12-08T08:41:58.762Z,97500.47
2022-12-08T08:43:37.554Z,97503.06
2022-12-08T08:45:11.718Z,97506.34
2022-12-08T08:46:44.718Z,97506.34
2022-12-08T08:48:17.136Z,97503.69
2022-12-08T08:49:49.208Z,97499.28
2022-12-08T08:51:21.877Z,97504.94
2022-12-08T08:52:54.155Z,97500.31
2022-12-08T08:54:26.305Z,97500.22
2022-12-08T08:55:58.691Z,97495.69
2022-12-08T08:57:31.119Z,97491.78
2022-12-08T08:59:04.028Z,97500.13
2022-12-08T09:00:37.741Z,97489.84
2022-12-08T09:02:18.132Z,97489.84
2022-12-08T09:03:50.848Z,97488.19
2022-12-08T09:05:23.606Z,97484.81
2022-12-08T09:06:57.026Z,97483.16
2022-12-08T09:08:29.354Z,97477.94
2022-12-08T09:10:02.008Z,97480.09
2022-12-08T09:11:34.804Z,97469.09
2022-12-08T09:13:07.109Z,97474.16
2022-12-08T09:14:39.894Z,97473.19
2022-12-08T09:16:12.812Z,97467.75
2022-12-08T09:17:45.420Z,97469.41
2022-12-08T09:19:17.734Z,97469.50
2022-12-08T09:20:49.994Z,97469.41
2022-12-08T09:22:22.547Z,97468.06
2022-12-08T09:23:58.099Z,97463.94
2022-12-08T09:25:30.944Z,97463.41
2022-12-08T09:27:04.253Z,97464.66
2022-12-08T09:28:37.286Z,97461.97
2022-12-08T09:30:11.307Z,97454.38
2022-12-08T09:31:45.130Z,97458.69
2022-12-08T09:33:19.008Z,97459.41
2022-12-08T09:34:52.570Z,97462.28
2022-12-08T09:36:25.923Z,97462.16
2022-12-08T09:37:57.957Z,97461.03
2022-12-08T09:39:31.523Z,97458.13
2022-12-08T09:41:14.323Z,97457.19
2022-12-08T09:43:05.589Z,97451.63
2022-12-08T09:44:45.005Z,97444.53
2022-12-08T09:46:20.826Z,97451.53
2022-12-08T09:48:06.502Z,97444.53
2022-12-08T09:49:47.266Z,97448.53
2022-12-08T09:51:20.287Z,97438.72
2022-12-08T09:53:15.560Z,97441.00
2022-12-08T09:54:47.465Z,97440.06
2022-12-08T09:56:22.848Z,97437.63
2022-12-08T09:58:03.534Z,97437.44
2022-12-08T09:59:36.523Z,97438.34
2022-12-08T10:01:12.632Z,97438.03
2022-12-08T10:02:48.212Z,97438.16
2022-12-08T10:04:26.154Z,97436.78
2022-12-08T10:06:28.208Z,97439.63
2022-12-08T10:08:16.929Z,97437.75
2022-12-08T10:10:07.053Z,97429.44
2022-12-08T10:12:04.365Z,97426.53
2022-12-08T10:13:50.682Z,97426.31
2022-12-08T10:15:28.815Z,97421.06
2022-12-08T10:17:06.607Z,97415.34
2022-12-08T10:18:38.539Z,97413.72
2022-12-08T10:20:17.238Z,97413.47
2022-12-08T10:21:49.862Z,97413.19
2022-12-08T10:23:30.597Z,97414.00
2022-12-08T10:25:06.325Z,97405.84
2022-12-08T10:26:38.276Z,97417.31
2022-12-08T10:28:11.686Z,97403.84
2022-12-08T10:29:44.360Z,97400.00
2022-12-08T10:31:23.379Z,97403.50
2022-12-08T10:32:56.132Z,97395.31
2022-12-08T10:34:29.063Z,97391.34
2022-12-08T10:36:06.253Z,97391.91
2022-12-08T10:37:39.883Z,97395.41
2022-12-08T10:39:31.236Z,97397.88
2022-12-08T10:41:05.489Z,97393.44
2022-12-08T10:42:49.251Z,97387.22
2022-12-08T10:44:21.950Z,97396.72
2022-12-08T10:45:55.511Z,97387.81
2022-12-08T10:47:30.181Z,97391.13
2022-12-08T10:49:06.992Z,97383.28
2022-12-08T10:50:44.141Z,97381.75
2022-12-08T10:52:26.269Z,97375.50
2022-12-08T10:54:00.336Z,97375.13
2022-12-08T10:55:46.444Z,97377.66
2022-12-08T10:57:22.627Z,97370.06
2022-12-08T10:59:21.228Z,97368.50
2022-12-08T11:00:59.974Z,97357.09
2022-12-08T11:02:32.901Z,97356.31
2022-12-08T11:04:12.881Z,97356.72
2022-12-08T11:05:45.074Z,97347.09
2022-12-08T11:07:23.123Z,97328.47
2022-12-08T11:09:04.853Z,97328.56
2022-12-08T11:10:44.201Z,97331.56
2022-12-08T11:12:21.338Z,97321.22
2022-12-08T11:13:54.963Z,97315.16
2022-12-08T11:15:35.680Z,97315.97
2022-12-08T11:17:25.386Z,97315.53
2022-12-08T11:18:59.224Z,97301.63
2022-12-08T11:20:41.309Z,97312.06
2022-12-08T11:22:34.119Z,97311.31
2022-12-08T11:24:21.682Z,97307.59
2022-12-08T11:25:56.934Z,97313.56
2022-12-08T11:27:33.714Z,97304.84
2022-12-08T11:29:05.655Z,97302.28
2022-12-08T11:30:41.623Z,97296.13
2022-12-08T11:32:13.788Z,97307.94
2022-12-08T11:33:48.175Z,97299.31
2022-12-08T11:35:29.199Z,97285.81
2022-12-08T11:37:09.537Z,97291.44
2022-12-08T11:38:46.901Z,97295.59
2022-12-08T11:40:37.876Z,97296.19
2022-12-08T11:42:14.941Z,97287.78
2022-12-08T11:44:06.004Z,97295.66
2022-12-08T11:45:40.903Z,97294.97
2022-12-08T11:47:24.970Z,97297.44
2022-12-08T11:49:06.405Z,97295.69
2022-12-08T11:50:53.418Z,97284.50
2022-12-08T11:52:33.808Z,97282.97
2022-12-08T11:54:13.297Z,97280.50
2022-12-08T11:55:55.248Z,97287.50
2022-12-08T11:57:29.936Z,97286.13
2022-12-08T11:59:08.591Z,97288.47
2022-12-08T12:00:40.598Z,97284.69
2022-12-08T12:02:17.508Z,97280.72
2022-12-08T12:04:13.854Z,97277.22
2022-12-08T12:06:37.592Z,97286.50
2022-12-08T12:08:14.995Z,97275.34
2022-12-08T12:10:21.297Z,97267.44
2022-12-08T12:12:19.179Z,97273.31
2022-12-08T12:13:59.107Z,97269.22
2022-12-08T12:15:39.870Z,97264.31
2022-12-08T12:17:21.051Z,97269.47
2022-12-08T12:18:58.048Z,97271.66
2022-12-08T12:20:50.187Z,97258.06
2022-12-08T12:22:23.228Z,97263.38
2022-12-08T12:24:04.333Z,97264.72
2022-12-08T12:25:36.981Z,97253.66
2022-12-08T12:27:14.970Z,97262.50
2022-12-08T12:28:57.396Z,97256.75
2022-12-08T12:30:56.978Z,97248.56
2022-12-08T12:32:53.347Z,97258.06
2022-12-08T12:34:29.360Z,97253.56
2022-12-08T12:36:08.379Z,97243.91
2022-12-08T12:37:44.658Z,97246.81
2022-12-08T12:39:22.310Z,97248.59
2022-12-08T12:41:04.867Z,97253.06
2022-12-08T12:42:44.629Z,97243.25
2022-12-08T12:44:22.770Z,97237.56
2022-12-08T12:46:23.182Z,97242.84
2022-12-08T12:48:00.585Z,97240.41
2022-12-08T12:49:41.318Z,97236.72
2022-12-08T12:51:54.007Z,97236.72
2022-12-08T12:53:25.610Z,97237.22
2022-12-08T12:54:57.203Z,97235.59
2022-12-08T12:56:58.092Z,97238.88
2022-12-08T12:58:30.534Z,97237.81
2022-12-08T13:00:02.391Z,97238.63
2022-12-08T13:01:46.462Z,97240.28
2022-12-08T13:03:18.607Z,97238.38
2022-12-08T13:05:17.024Z,97241.09
2022-12-08T13:06:50.535Z,97240.31
2022-12-08T13:08:27.390Z,97241.28
2022-12-08T13:10:11.121Z,97243.47
2022-12-08T13:11:53.871Z,97240.47
2022-12-08T13:13:25.964Z,97241.59
2022-12-08T13:15:05.619Z,97245.81
2022-12-08T13:16:39.675Z,97243.06
2022-12-08T13:18:49.522Z,97245.00
2022-12-08T13:20:24.948Z,97247.16
2022-12-08T13:21:56.994Z,97239.25
2022-12-08T13:23:38.102Z,97244.97
2022-12-08T13:25:44.112Z,97246.72
2022-12-08T13:27:30.520Z,97252.06
2022-12-08T13:29:03.727Z,97250.31
2022-12-08T13:30:50.791Z,97236.94
2022-12-08T13:32:35.430Z,97236.94
2022-12-08T13:34:43.175Z,97236.13
2022-12-08T13:36:33.922Z,97234.50
2022-12-08T13:38:08.496Z,97227.56
2022-12-08T13:39:42.170Z,97231.38
2022-12-08T13:41:22.923Z,97233.94
2022-12-08T13:43:19.794Z,97222.94
2022-12-08T13:45:27.903Z,97226.34
2022-12-08T13:47:32.699Z,97221.03
2022-12-08T13:56:43.313Z,97223.19
2022-12-08T13:57:26.732Z,97226.63
2022-12-08T13:59:10.316Z,97223.19
2022-12-08T14:00:43.647Z,97221.44
2022-12-08T14:02:29.302Z,97224.97
2022-12-08T14:04:34.039Z,97227.03
2022-12-08T14:06:13.425Z,97229.34
2022-12-08T14:07:50.345Z,97229.88
2022-12-08T14:09:27.540Z,97225.66
2022-12-08T14:11:07.067Z,97233.72
2022-12-08T14:12:49.826Z,97229.50
2022-12-08T14:14:53.676Z,97235.63
2022-12-08T14:16:34.521Z,97231.81
2022-12-08T14:18:22.160Z,97229.63
2022-12-08T14:20:13.176Z,97231.13
2022-12-08T14:21:56.811Z,97226.91
2022-12-08T14:23:30.673Z,97230.56
2022-12-08T14:25:06.222Z,97229.63
2022-12-08T14:26:38.985Z,97230.59
2022-12-08T14:28:12.902Z,97231.41
2022-12-08T14:29:57.445Z,97228.13
2022-12-08T14:31:31.177Z,97231.53
2022-12-08T14:33:05.901Z,97228.00
2022-12-08T14:34:41.099Z,97232.34
2022-12-08T14:36:16.813Z,97238.47
2022-12-08T14:37:51.720Z,97226.63
2022-12-08T14:39:25.106Z,97229.19
2022-12-08T14:41:08.200Z,97228.25
2022-12-08T14:42:50.826Z,97225.78
2022-12-08T14:44:24.795Z,97222.25
2022-12-08T14:46:03.443Z,97222.25
2022-12-08T14:47:36.291Z,97226.75
2022-12-08T14:49:33.323Z,97226.22
2022-12-08T14:51:25.096Z,97220.91
2022-12-08T14:52:58.259Z,97213.28
2022-12-08T14:54:31.641Z,97214.91
2022-12-08T14:56:09.976Z,97213.41
2022-12-08T14:57:43.755Z,97218.88
2022-12-08T14:59:19.672Z,97216.81
2022-12-08T15:00:59.022Z,97223.63
2022-12-08T15:02:33.347Z,97219.66
2022-12-08T15:04:29.761Z,97212.03
2022-12-08T15:06:07.027Z,97225.41
2022-12-08T15:07:53.694Z,97218.19
2022-12-08T15:09:42.358Z,97225.53
2022-12-08T15:11:30.455Z,97223.47
2022-12-08T15:13:11.665Z,97228.13
2022-12-08T15:14:59.857Z,97226.91
2022-12-08T15:16:39.988Z,97220.09
2022-12-08T15:18:17.980Z,97224.56
2022-12-08T15:19:57.215Z,97222.81
2022-12-08T15:21:33.319Z,97221.03
2022-12-08T15:23:08.391Z,97224.03
2022-12-08T15:24:41.751Z,97222.41
2022-12-08T15:26:24.227Z,97219.25
2022-12-08T15:27:58.774Z,97221.19
2022-12-08T15:29:31.583Z,97227.97
2022-12-08T15:31:04.402Z,97222.09
2022-12-08T15:32:38.335Z,97226.19
2022-12-08T15:34:12.253Z,97223.75
2022-12-08T15:35:46.675Z,97221.69
2022-12-08T15:37:27.626Z,97222.91
2022-12-08T15:38:59.666Z,97229.16
2022-12-08T15:40:31.385Z,97221.94
2022-12-08T15:42:06.456Z,97218.53
2022-12-08T15:43:38.116Z,97213.66
2022-12-08T15:45:18.038Z,97213.91
2022-12-08T15:46:50.766Z,97210.91
2022-12-08T15:48:26.871Z,97210.91
2022-12-08T15:49:59.112Z,97208.22
2022-12-08T15:51:36.516Z,97210.91
2022-12-08T15:53:10.975Z,97210.50
2022-12-08T15:54:42.749Z,97208.63
2022-12-08T15:56:30.097Z,97209.00
2022-12-08T15:58:51.745Z,97208.22
2022-12-08T15:59:53.673Z,97212.69
2022-12-08T16:01:26.304Z,97209.16
2022-12-08T16:03:27.648Z,97201.69
2022-12-08T16:07:19.536Z,97199.34
2022-12-08T16:08:49.665Z,97196.34
2022-12-08T16:10:45.427Z,97189.97
2022-12-08T16:13:40.415Z,97195.25
2022-12-08T16:16:30.670Z,97187.09
2022-12-08T16:18:03.810Z,97189.69
2022-12-08T16:19:36.565Z,97183.69
2022-12-08T16:21:31.670Z,97183.41
2022-12-08T16:23:26.433Z,97180.28
2022-12-08T16:24:55.293Z,97180.81
2022-12-08T16:27:28.582Z,97183.25
2022-12-08T16:30:15.592Z,97189.66
2022-12-08T16:31:47.774Z,97186.25
2022-12-08T16:33:20.015Z,97178.91
2022-12-08T16:34:53.001Z,97177.00
2022-12-08T16:36:25.133Z,97179.19
2022-12-08T16:37:57.810Z,97177.81
2022-12-08T16:39:29.732Z,97174.81
2022-12-08T16:41:21.196Z,97172.34
2022-12-08T16:42:53.650Z,97171.00
2022-12-08T16:44:25.919Z,97173.69
2022-12-08T16:45:57.969Z,97180.38
2022-12-08T16:47:30.998Z,97180.22
2022-12-08T16:49:03.642Z,97186.38
2022-12-08T16:50:35.632Z,97184.16
2022-12-08T16:52:07.649Z,97191.78
2022-12-08T16:53:40.215Z,97183.34
2022-12-08T16:55:14.813Z,97187.28
2022-12-08T16:56:46.510Z,97179.94
2022-12-08T16:58:21.461Z,97183.75
2022-12-08T16:59:54.218Z,97176.41
2022-12-08T17:01:26.179Z,97180.19
2022-12-08T17:02:58.983Z,97175.81
2022-12-08T17:04:32.376Z,97180.06
2022-12-08T17:06:17.794Z,97180.88
2022-12-08T17:07:52.157Z,97173.28
2022-12-08T17:09:25.463Z,97173.53
2022-12-08T17:11:07.675Z,97176.66
2022-12-08T17:12:39.855Z,97182.75
2022-12-08T17:14:13.138Z,97181.41
2022-12-08T17:15:44.912Z,97176.41
2022-12-08T17:17:16.603Z,97177.19
2022-12-08T17:18:48.804Z,97187.56
2022-12-08T17:20:23.821Z,97181.69
2022-12-08T17:21:55.976Z,97183.88
2022-12-08T17:23:27.757Z,97183.19
2022-12-08T17:24:59.462Z,97184.94
2022-12-08T17:26:31.259Z,97186.84
2022-12-08T17:28:03.466Z,97185.63
2022-12-08T17:29:35.278Z,97186.84
2022-12-08T17:31:12.708Z,97184.63
2022-12-08T17:32:45.254Z,97185.75
2022-12-08T17:34:19.373Z,97178.13
2022-12-08T17:35:54.849Z,97177.81
2022-12-08T17:37:27.533Z,97177.13
2022-12-08T17:39:01.167Z,97180.66
2022-12-08T17:40:33.103Z,97171.66
2022-12-08T17:42:07.096Z,97169.59
2022-12-08T17:43:39.039Z,97169.44
2022-12-08T17:45:11.237Z,97173.94
2022-12-08T17:46:49.088Z,97177.66
2022-12-08T17:48:25.254Z,97178.69
2022-12-08T17:49:57.877Z,97177.88
2022-12-08T17:51:29.497Z,97177.13
2022-12-08T17:53:01.177Z,97186.31
2022-12-08T17:54:32.935Z,97183.44
2022-12-08T17:56:04.906Z,97183.00
2022-12-08T17:57:37.273Z,97187.72
2022-12-08T17:59:09.661Z,97181.59
2022-12-08T18:00:41.607Z,97185.28
2022-12-08T18:02:14.718Z,97192.75
2022-12-08T18:03:49.162Z,97196.22
2022-12-08T18:05:24.613Z,97194.50
2022-12-08T18:07:00.802Z,97190.31
2022-12-08T18:08:33.876Z,97191.91
2022-12-08T18:10:07.572Z,97190.66
2022-12-08T18:11:41.456Z,97187.75
2022-12-08T18:13:13.890Z,97190.72
2022-12-08T18:14:47.867Z,97189.59
2022-12-08T18:16:23.847Z,97191.13
2022-12-08T18:17:55.770Z,97187.41
2022-12-08T18:19:27.987Z,97182.63
2022-12-08T18:21:01.096Z,97185.19
2022-12-08T18:22:32.895Z,97189.56
2022-12-08T18:24:05.633Z,97180.69
2022-12-08T18:25:38.258Z,97188.63
2022-12-08T18:27:10.191Z,97192.78
2022-12-08T18:28:42.622Z,97199.50
2022-12-08T18:30:18.169Z,97195.44
2022-12-08T18:31:52.111Z,97196.41
2022-12-08T18:33:23.853Z,97196.19
2022-12-08T18:34:56.448Z,97197.13
2022-12-08T18:36:28.922Z,97196.53
2022-12-08T18:38:02.061Z,97190.72
2022-12-08T18:39:35.951Z,97193.16
2022-12-08T18:41:21.240Z,97192.13
2022-12-08T18:42:54.766Z,97194.94
2022-12-08T18:44:28.470Z,97188.28
2022-12-08T18:46:08.582Z,97187.69
2022-12-08T18:47:41.852Z,97182.06
2022-12-08T18:49:18.110Z,97185.69
2022-12-08T18:50:50.856Z,97180.69
2022-12-08T18:52:31.018Z,97175.19
2022-12-08T18:54:05.273Z,97182.44
2022-12-08T18:55:38.190Z,97177.53
2022-12-08T18:57:10.887Z,97179.50
2022-12-08T18:58:43.608Z,97180.31
2022-12-08T19:00:18.778Z,97174.47
2022-12-08T19:01:52.352Z,97175.63
2022-12-08T19:03:26.003Z,97175.91
2022-12-08T19:04:58.853Z,97164.53
2022-12-08T19:06:31.507Z,97172.22
2022-12-08T19:08:04.057Z,97173.16